Time;durP1;ratioP1;P1;durP2;ratioP2;P2;SDS_P1;SDS_P2;PMS_P1;PMS_P2;Temp;Humidity;BMP_temperature;BMP_pressure;BME280_temperature;BME280_humidity;BME280_pressure;Samples;Min_cycle;Max_cycle;Signal;HPM_P1;HPM_P2
2023/07/20 00:01:58;;;;;;;9.30;2.77;;;23.70;78.80;;;24.41;54.46;94628.56;5078907;28;21041;-58
2023/07/20 00:04:25;;;;;;;8.07;3.10;;;23.70;78.80;;;24.41;54.12;94618.59;5076503;28;20476;-69
2023/07/20 00:06:53;;;;;;;8.17;2.63;;;23.80;79.10;;;24.43;54.34;94640.72;5082447;28;20449;-57
2023/07/20 00:09:21;;;;;;;6.70;2.50;;;23.80;79.50;;;24.51;54.20;94655.69;5075727;28;20457;-57
2023/07/20 00:11:50;;;;;;;6.70;2.40;;;23.80;79.70;;;24.56;54.80;94646.94;5079605;28;20466;-71
2023/07/20 00:14:18;;;;;;;4.93;2.90;;;23.90;80.10;;;24.63;54.36;94656.56;5074674;28;20478;-56
2023/07/20 00:16:46;;;;;;;11.43;2.53;;;23.90;80.10;;;24.69;55.00;94646.72;5080206;28;20465;-58
2023/07/20 00:19:16;;;;;;;13.53;3.20;;;24.00;80.40;;;24.75;54.70;94655.72;5075249;28;21087;-70
2023/07/20 00:21:43;;;;;;;7.90;3.17;;;24.00;80.20;;;24.83;54.24;94644.63;5075949;28;20498;-69
2023/07/20 00:24:10;;;;;;;10.73;2.47;;;24.20;80.40;;;24.89;54.55;94638.28;5077571;28;20447;-58
2023/07/20 00:26:38;;;;;;;8.23;2.57;;;24.20;80.00;;;24.95;54.79;94655.38;5078033;28;20620;-70
2023/07/20 00:29:05;;;;;;;12.87;3.40;;;24.30;80.20;;;25.00;54.86;94660.88;5076144;28;20471;-70
2023/07/20 00:31:34;;;;;;;6.20;2.60;;;24.30;80.00;;;25.04;54.08;94668.22;5075799;28;20905;-70
2023/07/20 00:34:02;;;;;;;8.63;2.20;;;24.40;80.00;;;25.08;54.21;94673.16;5079553;28;20519;-71
2023/07/20 00:36:30;;;;;;;3.70;2.30;;;24.40;79.60;;;25.12;53.77;94668.94;5080744;28;20473;-57
2023/07/20 00:38:57;;;;;;;10.60;2.63;;;24.40;79.50;;;25.16;54.04;94653.94;5076958;28;20442;-59
2023/07/20 00:41:29;;;;;;;9.90;2.73;;;24.50;79.70;;;25.21;53.68;94648.69;5076689;28;20486;-70
2023/07/20 00:43:56;;;;;;;5.70;3.00;;;24.50;79.70;;;25.22;54.16;94653.81;5079584;28;20980;-70
2023/07/20 00:46:24;;;;;;;12.03;2.67;;;24.50;79.70;;;25.25;53.79;94660.59;5076508;28;20565;-70
2023/07/20 00:48:51;;;;;;;5.93;2.73;;;24.50;79.30;;;25.21;54.24;94654.06;5079320;28;20453;-70
2023/07/20 00:51:18;;;;;;;9.60;2.80;;;24.50;79.60;;;25.17;54.11;94650.19;5073965;28;20479;-69
2023/07/20 00:53:47;;;;;;;8.37;2.40;;;24.50;79.70;;;25.08;54.01;94638.16;5072343;28;21358;-70
2023/07/20 00:56:14;;;;;;;12.00;3.03;;;24.40;79.50;;;25.01;54.30;94633.72;5073369;28;20470;-58
2023/07/20 00:58:41;;;;;;;13.10;2.67;;;24.40;80.00;;;24.97;54.45;94637.13;5080876;28;20454;-58
2023/07/20 01:01:09;;;;;;;7.53;2.80;;;24.30;80.40;;;24.95;54.87;94640.03;5077425;28;20580;-70
2023/07/20 01:03:36;;;;;;;8.83;3.30;;;24.30;80.90;;;24.94;54.80;94635.72;5078168;28;20461;-69
2023/07/20 01:06:21;;;;;;;11.73;2.73;;;24.30;81.20;;;24.93;55.38;94630.59;5075210;28;20474;-71
2023/07/20 01:08:58;;;;;;;10.10;4.80;;;24.30;81.30;;;24.89;55.08;94635.59;5076808;28;20446;-71
2023/07/20 01:11:32;;;;;;;9.07;3.50;;;24.20;81.00;;;24.82;54.84;94648.38;5077088;28;20685;-69
2023/07/20 01:14:00;;;;;;;7.83;2.63;;;24.20;81.00;;;24.72;55.43;94646.25;5073797;28;20521;-70
2023/07/20 01:16:29;;;;;;;3.53;2.47;;;24.20;81.20;;;24.64;55.42;94643.91;5078541;28;20484;-69
2023/07/20 01:18:56;;;;;;;11.40;2.63;;;24.00;81.70;;;24.60;56.37;94637.34;5073344;28;20450;-70
2023/07/20 01:21:28;;;;;;;6.07;2.83;;;24.00;82.40;;;24.59;55.88;94641.94;5075415;28;20488;-70
2023/07/20 01:24:27;;;;;;;11.10;3.10;;;23.90;82.60;;;24.59;56.91;94641.13;5071496;28;20447;-71
2023/07/20 01:27:35;;;;;;;6.77;2.30;;;24.00;83.00;;;24.56;56.88;94650.44;5069389;28;20458;-58
2023/07/20 01:30:19;;;;;;;8.50;2.07;;;23.90;83.30;;;24.53;56.22;94657.06;5043238;28;20509;-70
2023/07/20 01:32:48;;;;;;;7.23;2.40;;;23.90;82.80;;;24.50;56.34;94651.34;5070061;28;20453;-72
2023/07/20 01:35:15;;;;;;;2.53;2.33;;;23.90;83.10;;;24.50;56.08;94648.66;5067988;28;20470;-57
2023/07/20 01:37:43;;;;;;;9.80;2.73;;;23.90;83.30;;;24.49;56.40;94649.72;5070639;28;20466;-57
2023/07/20 01:40:12;;;;;;;7.60;2.23;;;23.90;83.60;;;24.50;56.23;94640.59;5069642;28;20485;-70
2023/07/20 01:42:40;;;;;;;4.70;2.47;;;23.80;83.60;;;24.49;56.96;94644.34;5083619;28;20485;-70
2023/07/20 01:45:09;;;;;;;7.30;2.70;;;23.80;83.80;;;24.48;56.27;94646.22;5081923;28;20466;-70
2023/07/20 01:47:36;;;;;;;7.17;3.07;;;23.80;83.80;;;24.46;56.37;94642.09;5072533;28;20461;-71
2023/07/20 01:50:06;;;;;;;7.63;2.50;;;23.80;83.60;;;24.41;56.51;94633.94;5086492;28;21412;-70
2023/07/20 01:52:34;;;;;;;12.00;2.90;;;23.80;83.40;;;24.37;56.50;94638.13;5084654;28;20450;-70
2023/07/20 01:55:01;;;;;;;7.80;3.07;;;23.80;83.80;;;24.34;56.54;94637.53;5088812;28;20843;-70
2023/07/20 01:57:28;;;;;;;11.77;2.97;;;23.70;84.20;;;24.33;57.27;94640.47;5080404;28;20477;-57
2023/07/20 01:59:56;;;;;;;3.43;2.43;;;23.70;84.30;;;24.31;57.58;94632.63;5077210;28;20566;-58
2023/07/20 02:02:27;;;;;;;8.83;2.30;;;23.70;84.60;;;24.29;57.25;94634.75;5072030;28;20485;-58
2023/07/20 02:04:54;;;;;;;14.43;2.30;;;23.70;84.30;;;24.25;56.76;94646.19;5073780;28;20469;-57
2023/07/20 02:07:23;;;;;;;5.60;2.00;;;23.70;84.30;;;24.25;56.93;94635.44;5069544;28;20485;-70
2023/07/20 02:09:50;;;;;;;6.67;2.80;;;23.60;84.50;;;24.24;56.97;94623.84;5071872;28;20462;-71
2023/07/20 02:12:17;;;;;;;3.77;1.87;;;23.60;84.60;;;24.23;57.54;94638.34;5070731;28;20454;-71
2023/07/20 02:14:45;;;;;;;7.13;2.60;;;23.60;84.60;;;24.21;56.83;94636.94;5078001;28;20450;-72
2023/07/20 02:17:12;;;;;;;8.23;2.53;;;23.60;84.60;;;24.18;57.64;94635.50;5072078;28;20454;-71
2023/07/20 02:19:41;;;;;;;9.67;2.60;;;23.60;85.00;;;24.15;56.96;94646.72;5080306;28;20832;-58
2023/07/20 02:22:08;;;;;;;3.13;2.30;;;23.50;84.90;;;24.13;57.79;94643.47;5074271;28;20575;-59
2023/07/20 02:24:37;;;;;;;10.23;2.97;;;23.50;85.10;;;24.12;57.08;94649.88;5081783;28;20453;-58
2023/07/20 02:27:05;;;;;;;10.37;3.00;;;23.50;85.10;;;24.09;57.59;94643.09;5074837;28;20514;-57
2023/07/20 02:29:32;;;;;;;14.73;2.53;;;23.50;85.40;;;24.07;57.97;94633.63;5078666;28;20523;-70
2023/07/20 02:31:59;;;;;;;12.93;3.17;;;23.50;85.60;;;24.05;57.24;94631.16;5073674;28;20523;-57
2023/07/20 02:34:26;;;;;;;5.10;2.00;;;23.40;85.30;;;24.01;57.53;94623.78;5075571;28;20457;-57
2023/07/20 02:36:56;;;;;;;6.03;2.63;;;23.40;85.20;;;23.97;57.62;94626.13;5075212;28;20451;-71
2023/07/20 02:39:23;;;;;;;8.53;2.33;;;23.30;84.80;;;23.92;57.63;94616.06;5079238;28;20464;-58
2023/07/20 02:41:51;;;;;;;7.43;2.83;;;23.40;85.20;;;23.90;57.72;94612.78;5074189;28;20490;-57
2023/07/20 02:44:19;;;;;;;15.97;3.00;;;23.30;85.30;;;23.89;58.02;94611.16;5080022;28;20915;-70
2023/07/20 02:46:46;;;;;;;5.80;2.20;;;23.30;85.90;;;23.87;58.32;94604.38;5075913;28;20478;-71
2023/07/20 02:49:13;;;;;;;7.47;2.90;;;23.30;86.10;;;23.84;58.01;94611.00;5079423;28;20453;-69
2023/07/20 02:51:41;;;;;;;13.23;3.27;;;23.20;86.20;;;23.82;58.03;94605.03;5068898;28;20474;-72
2023/07/20 02:54:08;;;;;;;8.17;3.33;;;23.20;86.40;;;23.83;57.96;94612.03;5074031;28;20958;-57
2023/07/20 02:56:35;;;;;;;7.80;2.10;;;23.20;86.50;;;23.79;57.70;94616.22;5072431;28;20474;-58
2023/07/20 02:59:04;;;;;;;13.93;3.03;;;23.20;86.60;;;23.80;57.88;94612.50;5079058;28;20547;-70
2023/07/20 03:01:31;;;;;;;7.73;2.90;;;23.20;86.80;;;23.79;58.68;94617.03;5075179;28;20490;-69
2023/07/20 03:03:58;;;;;;;10.17;2.70;;;23.20;87.20;;;23.80;58.27;94615.19;5071854;28;20513;-69
2023/07/20 03:06:26;;;;;;;5.43;2.87;;;23.20;87.60;;;23.80;58.74;94612.50;5077575;28;20470;-57
2023/07/20 03:08:53;;;;;;;11.10;2.83;;;23.20;87.20;;;23.80;58.23;94607.13;5071884;28;20459;-70
2023/07/20 03:11:21;;;;;;;5.90;2.87;;;23.20;87.20;;;23.79;58.76;94610.84;5072751;28;20478;-71
2023/07/20 03:13:48;;;;;;;8.93;3.13;;;23.20;87.60;;;23.79;58.58;94617.03;5071664;28;20550;-71
2023/07/20 03:16:20;;;;;;;5.33;3.33;;;23.20;88.00;;;23.78;58.81;94614.56;5079590;28;20500;-71
2023/07/20 03:18:47;;;;;;;8.67;3.10;;;23.20;87.90;;;23.77;59.19;94618.34;5079423;28;20446;-71
2023/07/20 03:21:15;;;;;;;19.20;4.17;;;23.20;88.00;;;23.76;58.56;94622.88;5080440;28;21005;-70
2023/07/20 03:23:42;;;;;;;8.83;3.20;;;23.20;88.50;;;23.76;58.75;94625.56;5077865;28;20571;-70
2023/07/20 03:26:09;;;;;;;16.70;3.20;;;23.20;89.00;;;23.77;59.42;94624.50;5079050;28;20462;-58
2023/07/20 03:28:37;;;;;;;18.23;3.83;;;23.20;89.20;;;23.78;59.41;94617.25;5073530;28;20453;-58
2023/07/20 03:31:04;;;;;;;17.20;3.90;;;23.20;88.80;;;23.77;58.65;94629.06;5077408;28;20484;-57
2023/07/20 03:33:33;;;;;;;17.47;4.50;;;23.20;88.80;;;23.74;59.05;94626.84;5075911;28;20538;-71
2023/07/20 03:36:00;;;;;;;16.70;4.73;;;23.20;88.90;;;23.69;58.86;94634.78;5083901;28;20462;-58
2023/07/20 03:38:28;;;;;;;16.33;3.90;;;23.10;88.90;;;23.61;59.59;94634.03;5074063;28;20450;-60
2023/07/20 03:40:56;;;;;;;17.47;4.50;;;23.10;89.00;;;23.59;59.13;94630.75;5083879;28;20523;-59
2023/07/20 03:43:24;;;;;;;8.77;4.07;;;23.00;89.30;;;23.59;59.89;94628.09;5068694;28;21500;-72
2023/07/20 03:45:51;;;;;;;17.10;4.20;;;23.00;89.60;;;23.61;60.06;94633.22;5079499;28;20463;-73
2023/07/20 03:48:19;;;;;;;9.07;2.90;;;23.00;89.70;;;23.60;59.63;94632.38;5073063;28;20451;-57
2023/07/20 03:50:48;;;;;;;23.80;4.43;;;23.00;90.00;;;23.67;59.79;94635.00;5076675;28;20469;-58
2023/07/20 03:53:16;;;;;;;20.77;3.87;;;23.10;90.00;;;23.71;59.73;94627.31;5072857;28;20453;-72
2023/07/20 03:55:43;;;;;;;11.40;3.67;;;23.10;90.20;;;23.76;59.21;94640.84;5080543;28;21743;-71
2023/07/20 03:58:10;;;;;;;14.33;3.50;;;23.10;90.00;;;23.80;59.37;94634.81;5073956;28;20969;-57
2023/07/20 04:00:38;;;;;;;6.87;3.67;;;23.20;90.10;;;23.86;58.97;94632.28;5077327;28;20490;-70
2023/07/20 04:03:05;;;;;;;9.43;3.90;;;23.20;89.70;;;23.85;59.01;94631.47;5072565;28;20971;-69
2023/07/20 04:05:32;;;;;;;19.80;3.90;;;23.20;89.50;;;23.82;58.58;94618.44;5074693;28;20584;-57
2023/07/20 04:08:01;;;;;;;13.67;4.63;;;23.20;89.50;;;23.82;58.82;94626.50;5083340;28;20488;-73
2023/07/20 04:10:29;;;;;;;22.77;3.93;;;23.20;89.50;;;23.78;59.54;94636.06;5092890;28;20548;-71
2023/07/20 04:12:56;;;;;;;12.60;4.73;;;23.20;90.00;;;23.75;58.78;94628.47;5089964;28;20454;-72
2023/07/20 04:15:24;;;;;;;14.93;5.07;;;23.20;89.50;;;23.75;58.92;94615.03;5077364;28;20482;-67
2023/07/20 04:17:51;;;;;;;14.60;4.27;;;23.10;89.50;;;23.74;58.78;94618.78;5076552;28;20462;-67
2023/07/20 04:20:19;;;;;;;12.00;6.97;;;23.20;89.50;;;23.71;59.21;94613.88;5076321;28;20481;-59
2023/07/20 04:22:46;;;;;;;11.10;4.93;;;23.10;89.40;;;23.70;58.87;94613.06;5078483;28;20813;-59
2023/07/20 04:25:15;;;;;;;8.83;4.50;;;23.10;89.40;;;23.72;59.26;94616.34;5073234;28;20557;-65
2023/07/20 04:27:42;;;;;;;11.90;4.70;;;23.10;89.40;;;23.75;59.29;94606.97;5072013;28;20461;-65
2023/07/20 04:30:11;;;;;;;22.97;4.17;;;23.10;89.50;;;23.79;58.75;94611.66;5071556;28;20542;-66
2023/07/20 04:32:38;;;;;;;15.93;4.97;;;23.20;89.50;;;23.83;58.82;94612.03;5078819;28;21055;-58
2023/07/20 04:35:08;;;;;;;8.63;4.40;;;23.20;89.90;;;23.87;58.79;94613.25;5070405;28;20582;-68
2023/07/20 04:37:35;;;;;;;14.03;4.30;;;23.20;90.00;;;23.91;59.08;94609.06;5075527;28;20457;-68
2023/07/20 04:40:03;;;;;;;16.20;5.07;;;23.30;90.20;;;23.96;59.43;94611.88;5078254;28;20535;-73
2023/07/20 04:42:32;;;;;;;26.60;6.83;;;23.30;90.30;;;24.01;59.48;94610.38;5072287;28;20570;-58
2023/07/20 04:44:59;;;;;;;13.83;4.50;;;23.40;90.30;;;24.04;59.11;94597.28;5067955;28;20486;-59
2023/07/20 04:47:26;;;;;;;23.27;5.00;;;23.40;90.20;;;24.04;59.20;94609.91;5072665;28;20504;-59
2023/07/20 04:49:54;;;;;;;22.03;8.90;;;23.40;90.00;;;24.03;59.36;94616.31;5076754;28;20986;-73
2023/07/20 04:52:21;;;;;;;13.97;7.80;;;23.40;90.40;;;24.03;59.39;94605.56;5077311;28;20979;-58
2023/07/20 04:54:48;;;;;;;22.47;5.33;;;23.40;90.10;;;24.01;58.51;94610.38;5076567;28;20467;-71
2023/07/20 04:57:16;;;;;;;16.70;5.10;;;23.40;89.80;;;23.99;59.04;94607.91;5079980;28;20455;-71
2023/07/20 04:59:44;;;;;;;14.90;4.30;;;23.40;90.10;;;24.01;58.70;94602.31;5075957;28;20455;-73
2023/07/20 05:02:11;;;;;;;15.70;5.27;;;23.40;90.30;;;24.05;59.09;94615.03;5074334;28;20524;-57
2023/07/20 05:04:39;;;;;;;15.80;5.40;;;23.40;90.20;;;24.07;58.58;94602.19;5076287;28;20540;-72
2023/07/20 05:07:06;;;;;;;11.23;5.03;;;23.50;90.30;;;24.11;58.82;94605.25;5078290;28;20507;-59
2023/07/20 05:09:34;;;;;;;10.90;5.70;;;23.50;90.50;;;24.17;58.92;94607.03;5078254;28;20442;-74
2023/07/20 05:12:01;;;;;;;14.33;5.10;;;23.50;90.50;;;24.22;59.39;94609.81;5079344;28;20858;-72
2023/07/20 05:14:29;;;;;;;11.77;4.30;;;23.60;90.50;;;24.27;59.49;94622.56;5076386;28;20504;-58
2023/07/20 05:16:57;;;;;;;18.17;4.73;;;23.60;90.50;;;24.33;59.50;94616.28;5079858;28;20449;-72
2023/07/20 05:19:27;;;;;;;16.20;4.90;;;23.70;90.70;;;24.41;59.07;94612.41;5075992;28;20878;-59
2023/07/20 05:21:54;;;;;;;18.90;4.93;;;23.70;90.80;;;24.48;58.87;94603.19;5075681;28;20446;-59
2023/07/20 05:24:21;;;;;;;19.47;4.63;;;23.80;90.80;;;24.58;59.42;94613.38;5074945;28;20891;-70
2023/07/20 05:26:49;;;;;;;20.47;4.80;;;23.90;90.80;;;24.69;59.31;94617.97;5079159;28;20578;-72
2023/07/20 05:29:16;;;;;;;14.03;5.70;;;24.00;90.70;;;24.82;58.34;94629.53;5077213;28;20454;-60
2023/07/20 05:31:44;;;;;;;16.07;5.40;;;24.10;90.60;;;24.98;58.35;94634.19;5076021;28;20466;-60
2023/07/20 05:34:12;;;;;;;15.73;6.13;;;24.30;90.60;;;25.14;58.25;94627.25;5071166;28;20534;-73
2023/07/20 05:37:14;;;;;;;11.97;6.63;;;24.40;90.30;;;25.32;57.92;94629.03;5078351;28;20579;-58
2023/07/20 05:39:41;;;;;;;21.33;5.73;;;24.60;90.40;;;25.48;57.61;94637.41;5074509;28;20449;-59
2023/07/20 05:42:09;;;;;;;19.73;5.20;;;24.70;90.10;;;25.64;57.12;94642.03;5073658;28;20453;-57
2023/07/20 05:44:36;;;;;;;14.83;5.03;;;24.90;90.00;;;25.82;57.03;94641.03;5076554;28;20482;-70
2023/07/20 05:47:03;;;;;;;20.07;5.50;;;25.10;89.90;;;26.00;56.92;94645.44;5075028;28;20454;-71
2023/07/20 05:49:32;;;;;;;16.37;4.63;;;25.20;89.30;;;26.17;56.13;94647.34;5075266;28;20450;-60
2023/07/20 05:52:00;;;;;;;27.90;6.77;;;25.40;88.60;;;26.32;56.33;94636.84;5077701;28;20449;-73
2023/07/20 05:54:28;;;;;;;8.33;3.97;;;25.50;88.20;;;26.48;55.75;94638.69;5075482;28;20449;-57
2023/07/20 05:56:55;;;;;;;16.90;5.43;;;25.70;87.90;;;26.64;55.52;94631.66;5077901;28;20540;-71
2023/07/20 05:59:23;;;;;;;13.80;4.93;;;25.90;87.30;;;26.79;55.06;94639.22;5080454;28;21043;-60
2023/07/20 06:01:51;;;;;;;11.57;5.13;;;26.00;86.60;;;26.93;54.69;94636.19;5067160;28;20953;-72
2023/07/20 06:04:18;;;;;;;14.80;5.23;;;26.10;86.00;;;27.07;54.74;94632.03;5070334;28;20493;-71
2023/07/20 06:06:47;;;;;;;14.33;5.03;;;26.30;86.10;;;27.24;54.40;94642.81;5080660;28;21110;-72
2023/07/20 06:09:15;;;;;;;23.23;5.50;;;26.50;85.80;;;27.38;54.00;94637.88;5073183;28;20504;-58
2023/07/20 06:11:42;;;;;;;12.77;5.60;;;26.60;85.20;;;27.53;53.59;94640.78;5073845;28;20556;-62
2023/07/20 06:14:09;;;;;;;24.77;5.70;;;26.70;84.60;;;27.67;53.55;94634.97;5074470;28;20592;-58
2023/07/20 06:16:36;;;;;;;14.17;5.10;;;26.90;84.20;;;27.81;53.32;94630.81;5075927;28;20498;-59
2023/07/20 06:19:04;;;;;;;13.47;5.57;;;27.00;83.90;;;27.94;52.62;94616.06;5079672;28;20465;-72
2023/07/20 06:21:31;;;;;;;30.80;5.60;;;27.10;82.90;;;28.05;52.70;94615.13;5083361;28;21198;-58
2023/07/20 06:24:00;;;;;;;10.97;5.47;;;27.20;82.50;;;28.18;52.28;94613.91;5072814;28;20547;-61
2023/07/20 06:26:28;;;;;;;11.33;4.83;;;27.40;82.10;;;28.32;51.68;94618.88;5074714;28;20469;-58
2023/07/20 06:28:55;;;;;;;16.10;5.57;;;27.50;81.20;;;28.45;51.67;94613.06;5077084;28;21053;-73
2023/07/20 06:31:23;;;;;;;19.73;5.67;;;27.60;80.70;;;28.60;51.11;94615.09;5074383;28;20458;-61
2023/07/20 06:33:50;;;;;;;11.33;5.03;;;27.80;80.80;;;28.75;51.49;94608.97;5072112;28;20991;-73
2023/07/20 06:36:18;;;;;;;16.33;5.80;;;27.90;80.40;;;28.92;50.80;94601.50;5074579;28;20235;-72
2023/07/20 06:38:46;;;;;;;20.67;5.00;;;28.10;79.40;;;29.07;50.00;94606.19;5075469;28;20206;-71
2023/07/20 06:41:14;;;;;;;11.20;5.33;;;28.30;78.90;;;29.20;49.66;94613.03;5070941;28;20220;-58
2023/07/20 06:43:42;;;;;;;11.43;4.93;;;28.40;78.10;;;29.31;49.24;94606.63;5075894;28;20289;-72
2023/07/20 06:46:09;;;;;;;23.43;6.60;;;28.50;77.70;;;29.44;48.85;94612.63;5075139;28;20273;-71
2023/07/20 06:48:36;;;;;;;9.43;4.53;;;28.60;77.00;;;29.56;49.38;94610.50;5077630;28;20204;-72
2023/07/20 06:51:03;;;;;;;17.60;5.30;;;28.70;76.50;;;29.72;48.45;94610.56;5078542;28;20297;-63
2023/07/20 06:53:31;;;;;;;14.30;4.83;;;28.90;76.50;;;29.90;48.69;94615.50;5077470;28;20204;-59
2023/07/20 06:55:58;;;;;;;18.53;5.20;;;29.00;75.20;;;30.08;47.63;94626.94;5077506;28;20299;-72
2023/07/20 06:58:27;;;;;;;11.80;4.70;;;29.20;75.30;;;30.29;47.43;94631.31;5085669;28;20256;-70
2023/07/20 07:00:54;;;;;;;11.50;4.93;;;29.40;74.70;;;30.47;46.94;94635.41;5087559;28;20235;-72
2023/07/20 07:03:21;;;;;;;17.50;5.97;;;29.60;73.80;;;30.56;46.95;94639.19;5077403;28;20231;-58
2023/07/20 07:05:49;;;;;;;8.93;4.93;;;29.70;73.10;;;30.58;46.19;94638.94;5074889;28;20286;-73
2023/07/20 07:08:16;;;;;;;22.42;5.38;;;29.80;72.30;;;30.55;46.56;94643.03;5082929;28;20204;-72
2023/07/20 07:10:43;;;;;;;19.30;6.07;;;29.80;72.10;;;30.51;46.91;94651.97;5078275;28;20228;-59
2023/07/20 07:13:11;;;;;;;18.67;5.83;;;29.80;71.90;;;30.47;46.75;94661.75;5082817;28;20259;-71
2023/07/20 07:15:39;;;;;;;12.73;4.37;;;29.70;71.60;;;30.37;46.36;94676.09;5077491;28;20223;-72
2023/07/20 07:18:07;;;;;;;16.30;4.50;;;29.60;72.20;;;30.33;46.72;94689.34;5079127;28;20230;-58
2023/07/20 07:20:34;;;;;;;34.67;4.75;;;29.60;72.10;;;30.36;47.08;94677.97;5081216;28;20215;-71
2023/07/20 07:23:01;;;;;;;8.90;3.45;;;29.60;72.10;;;30.46;46.50;94681.81;5080971;28;20641;-71
2023/07/20 07:25:28;;;;;;;19.63;4.50;;;29.70;72.20;;;30.57;47.01;94684.28;5075635;28;20259;-60
2023/07/20 07:27:56;;;;;;;5.77;3.60;;;29.70;72.20;;;30.70;46.32;94682.13;5076847;28;20207;-71
2023/07/20 07:30:23;;;;;;;10.38;3.55;;;29.90;72.00;;;30.84;46.25;94675.03;5076144;28;20281;-58
2023/07/20 07:32:52;;;;;;;12.48;3.90;;;30.00;71.80;;;30.99;45.82;94659.88;5072353;28;20212;-57
2023/07/20 07:35:19;;;;;;;20.10;5.13;;;30.10;71.30;;;31.12;46.07;94656.56;5076282;28;20223;-57
2023/07/20 07:37:47;;;;;;;10.07;3.58;;;30.30;71.00;;;31.23;45.40;94663.63;5080133;28;20200;-58
2023/07/20 07:40:14;;;;;;;11.52;3.63;;;30.30;70.40;;;31.36;44.73;94678.53;5077120;28;20228;-72
2023/07/20 07:42:41;;;;;;;11.00;3.92;;;30.50;69.60;;;31.51;44.71;94680.41;5078666;28;20196;-72
2023/07/20 07:45:10;;;;;;;20.92;4.95;;;30.60;69.70;;;31.66;44.11;94657.81;5081672;28;20637;-71
2023/07/20 07:47:37;;;;;;;13.73;3.40;;;30.80;68.90;;;31.81;44.13;94641.41;5076293;28;20257;-72
2023/07/20 07:50:07;;;;;;;9.07;3.28;;;31.00;68.60;;;31.95;43.90;94638.91;5079991;28;20220;-71
2023/07/20 07:52:34;;;;;;;12.10;4.57;;;31.10;67.90;;;32.09;43.80;94660.91;5083471;28;20196;-72
2023/07/20 07:55:03;;;;;;;13.45;4.50;;;31.20;67.80;;;32.24;43.76;94665.44;5079203;28;20226;-72
2023/07/20 07:57:31;;;;;;;14.57;4.10;;;31.40;67.70;;;32.38;43.51;94649.28;5077364;28;20207;-71
2023/07/20 07:59:58;;;;;;;9.68;3.30;;;31.50;67.40;;;32.54;42.66;94663.59;5082918;28;20586;-60
2023/07/20 08:02:26;;;;;;;21.23;3.97;;;31.70;66.40;;;32.65;43.19;94665.16;5076111;28;20754;-70
2023/07/20 08:04:53;;;;;;;10.27;4.82;;;31.80;66.60;;;32.79;43.29;94681.69;5080133;28;20231;-74
2023/07/20 08:07:22;;;;;;;13.40;4.30;;;31.90;66.30;;;32.91;42.59;94688.69;5080135;28;20208;-72
2023/07/20 08:09:49;;;;;;;14.00;4.10;;;32.00;66.20;;;32.97;42.91;94690.22;5082179;28;20306;-74
2023/07/20 08:12:18;;;;;;;15.80;4.00;;;32.10;66.10;;;33.00;42.60;94695.13;5075085;28;20212;-73
2023/07/20 08:14:45;;;;;;;21.80;4.25;;;32.20;65.60;;;32.96;42.59;94697.59;5083916;28;20302;-73
2023/07/20 08:17:13;;;;;;;13.27;3.00;;;32.10;65.00;;;32.87;41.67;94694.72;5075787;28;20207;-59
2023/07/20 08:19:41;;;;;;;11.73;3.38;;;32.10;64.00;;;32.80;41.07;94698.84;5081347;28;20210;-58
2023/07/20 08:22:09;;;;;;;6.50;2.80;;;32.00;61.90;;;32.75;41.49;94691.53;5076573;28;20287;-72
2023/07/20 08:24:41;;;;;;;10.30;2.55;;;32.00;63.40;;;32.76;41.25;94682.25;5084510;28;20238;-74
2023/07/20 08:27:08;;;;;;;7.57;3.28;;;31.90;63.30;;;32.89;41.06;94686.25;5080152;28;20192;-73
2023/07/20 08:29:35;;;;;;;15.65;3.92;;;32.00;62.70;;;33.03;40.68;94686.38;5079616;28;20738;-73
2023/07/20 08:32:03;;;;;;;13.68;3.70;;;32.20;62.40;;;33.13;39.21;94693.66;5077412;28;20212;-58
2023/07/20 08:34:31;;;;;;;16.38;3.15;;;32.30;60.60;;;33.19;40.05;94695.25;5072097;28;20203;-59
2023/07/20 08:36:58;;;;;;;5.82;3.10;;;32.30;61.30;;;33.28;40.11;94690.81;5072357;28;20250;-74
2023/07/20 08:39:25;;;;;;;11.93;3.13;;;32.50;61.40;;;33.41;40.32;94686.59;5075809;28;20200;-73
2023/07/20 08:41:54;;;;;;;11.10;3.85;;;32.60;61.10;;;33.53;40.21;94689.72;5080983;28;20284;-58
2023/07/20 08:44:22;;;;;;;13.15;3.42;;;32.60;61.10;;;33.68;39.09;94690.66;5073287;28;20281;-57
2023/07/20 08:46:49;;;;;;;8.50;3.10;;;32.80;60.20;;;33.79;39.21;94677.72;5077673;28;20291;-58
2023/07/20 08:49:17;;;;;;;21.17;3.72;;;32.90;59.70;;;33.88;39.43;94679.53;5072670;28;20292;-72
2023/07/20 08:51:44;;;;;;;18.45;2.70;;;33.10;59.50;;;33.96;38.52;94678.09;5072018;28;20232;-72
2023/07/20 08:54:11;;;;;;;7.82;2.60;;;33.20;58.60;;;34.01;38.43;94674.47;5077072;28;20640;-57
2023/07/20 08:56:39;;;;;;;4.95;3.08;;;33.20;58.30;;;34.08;37.93;94666.72;5078548;28;20700;-59
2023/07/20 08:59:09;;;;;;;13.13;3.40;;;33.30;58.40;;;34.14;36.63;94671.00;5077771;28;20204;-58
2023/07/20 09:01:36;;;;;;;18.75;3.58;;;33.30;56.10;;;34.13;37.51;94672.13;5076058;28;20243;-72
2023/07/20 09:04:04;;;;;;;15.45;3.75;;;33.40;56.80;;;34.10;36.96;94664.53;5074335;28;20232;-71
2023/07/20 09:06:31;;;;;;;16.25;3.55;;;33.30;57.10;;;34.12;37.06;94667.75;5081510;28;20222;-73
2023/07/20 09:08:58;;;;;;;17.65;3.67;;;33.30;56.60;;;34.11;37.17;94671.59;5073265;28;20677;-60
2023/07/20 09:11:26;;;;;;;6.35;3.28;;;33.30;56.60;;;34.14;36.37;94665.53;5080173;28;20232;-73
2023/07/20 09:14:05;;;;;;;9.40;2.92;;;33.30;56.10;;;34.20;37.52;94661.63;5076193;28;20259;-72
2023/07/20 09:16:34;;;;;;;11.88;2.88;;;33.30;56.80;;;34.34;37.57;94655.47;5077555;28;20323;-73
2023/07/20 09:19:01;;;;;;;7.82;2.80;;;33.50;57.30;;;34.46;37.54;94656.66;5081691;28;20208;-73
2023/07/20 09:21:31;;;;;;;6.32;2.55;;;33.60;56.80;;;34.53;35.82;94639.88;5074400;28;20220;-62
2023/07/20 09:23:58;;;;;;;10.88;3.42;;;33.70;55.80;;;34.51;37.36;94650.28;5081099;28;20199;-72
2023/07/20 09:26:25;;;;;;;14.18;3.00;;;33.70;56.00;;;34.54;36.68;94646.97;5069368;28;20376;-73
2023/07/20 09:28:54;;;;;;;8.30;3.10;;;33.70;55.90;;;34.57;36.66;94649.09;5073143;28;20335;-58
2023/07/20 09:31:22;;;;;;;11.18;3.42;;;33.70;56.00;;;34.61;36.95;94647.41;5070182;28;20233;-59
2023/07/20 09:33:53;;;;;;;9.70;2.85;;;33.80;55.60;;;34.65;36.27;94648.41;5083205;28;20200;-60
2023/07/20 09:36:20;;;;;;;11.32;3.38;;;33.80;55.30;;;34.70;36.37;94644.00;5083387;28;20536;-73
2023/07/20 09:38:48;;;;;;;9.88;2.90;;;33.90;55.10;;;34.76;35.88;94649.09;5076299;28;20199;-58
2023/07/20 09:41:15;;;;;;;10.20;3.13;;;33.90;54.70;;;34.78;35.94;94638.69;5072257;28;20228;-64
2023/07/20 09:43:43;;;;;;;9.35;2.58;;;33.90;54.40;;;34.78;35.41;94635.13;5077523;28;20284;-59
2023/07/20 09:46:10;;;;;;;5.60;2.78;;;34.00;54.30;;;34.75;34.97;94641.16;5074347;28;20318;-73
2023/07/20 09:48:38;;;;;;;8.55;2.67;;;33.90;54.40;;;34.75;35.57;94625.63;5073043;28;20231;-60
2023/07/20 09:51:08;;;;;;;9.43;2.80;;;34.00;54.70;;;34.82;35.68;94614.31;5076305;28;20247;-72
2023/07/20 09:53:36;;;;;;;13.65;2.97;;;34.00;54.00;;;34.82;35.13;94597.91;5078196;28;20195;-73
2023/07/20 09:56:03;;;;;;;9.43;2.95;;;34.00;53.90;;;34.78;35.13;94591.41;5075507;28;20373;-72
2023/07/20 09:58:31;;;;;;;10.63;2.80;;;34.00;53.30;;;34.72;35.69;94598.03;5076380;28;20740;-58
2023/07/20 10:00:58;;;;;;;4.07;2.35;;;33.90;53.50;;;34.61;35.02;94600.97;5074281;28;20278;-73
2023/07/20 10:03:29;;;;;;;8.07;2.90;;;33.80;53.30;;;34.51;34.90;94600.31;5080940;28;20241;-71
2023/07/20 10:05:59;;;;;;;11.05;2.33;;;33.80;53.70;;;34.37;34.96;94605.72;5077221;28;20235;-73
2023/07/20 10:08:29;;;;;;;8.25;2.80;;;33.60;53.40;;;34.19;35.66;94613.63;5076975;28;20231;-59
2023/07/20 10:10:58;;;;;;;8.15;3.22;;;33.40;53.90;;;34.07;35.76;94615.97;5080656;28;20231;-73
2023/07/20 10:13:28;;;;;;;7.20;2.83;;;33.30;53.80;;;33.99;35.10;94606.53;5074905;28;20204;-59
2023/07/20 10:15:57;;;;;;;5.38;2.70;;;33.20;53.70;;;33.92;34.75;94614.28;5079493;28;20253;-73
2023/07/20 10:18:29;;;;;;;17.67;2.88;;;33.10;53.70;;;33.84;35.27;94623.91;5073414;28;20212;-74
2023/07/20 10:20:56;;;;;;;10.43;2.83;;;33.10;53.50;;;33.77;35.12;94626.19;5080070;28;20269;-58